createdAt,value
2019-05-10T00:00:10.346Z,99758.17
2019-05-10T00:02:57.738Z,99760.57
2019-05-10T00:05:45.427Z,99761.41
2019-05-10T00:08:32.674Z,99756.31
2019-05-10T00:13:57.694Z,99760.73
2019-05-10T00:16:26.765Z,99751.92
2019-05-10T00:18:55.426Z,99763.13
2019-05-10T00:21:24.087Z,99756.70
2019-05-10T00:23:52.849Z,99763.66
2019-05-10T00:26:21.570Z,99760.78
2019-05-10T00:28:50.357Z,99750.11
2019-05-10T00:31:19.130Z,99760.77
2019-05-10T00:33:47.809Z,99754.50
2019-05-10T00:36:16.475Z,99758.23
2019-05-10T00:38:45.286Z,99759.94
2019-05-10T00:41:13.953Z,99755.02
2019-05-10T00:43:42.708Z,99759.42
2019-05-10T00:46:11.383Z,99763.85
2019-05-10T00:48:40.163Z,99766.22
2019-05-10T00:51:08.902Z,99759.44
2019-05-10T00:53:37.591Z,99765.72
2019-05-10T00:56:06.276Z,99768.80
2019-05-10T00:58:34.965Z,99772.52
2019-05-10T01:01:03.609Z,99767.26
2019-05-10T01:03:32.373Z,99771.70
2019-05-10T01:06:01.097Z,99777.47
2019-05-10T01:08:29.784Z,99769.50
2019-05-10T01:10:58.439Z,99768.98
2019-05-10T01:13:27.131Z,99779.50
2019-05-10T01:15:55.816Z,99774.92
2019-05-10T01:18:24.512Z,99779.16
2019-05-10T01:20:53.170Z,99777.80
2019-05-10T01:23:21.852Z,99770.70
2019-05-10T01:25:50.515Z,99772.36
2019-05-10T01:28:19.194Z,99771.69
2019-05-10T01:30:47.928Z,99767.94
2019-05-10T01:33:16.618Z,99772.17
2019-05-10T01:35:45.330Z,99773.05
2019-05-10T01:38:14.026Z,99774.20
2019-05-10T01:40:42.685Z,99779.63
2019-05-10T01:43:11.472Z,99790.31
2019-05-10T01:45:40.241Z,99797.42
2019-05-10T01:48:08.932Z,99786.05
2019-05-10T01:50:37.592Z,99799.12
2019-05-10T01:53:06.358Z,99803.51
2019-05-10T01:55:50.444Z,99802.83
2019-05-10T01:58:05.482Z,99801.11
2019-05-10T02:00:34.226Z,99801.27
2019-05-10T02:03:02.938Z,99803.98
2019-05-10T02:05:31.585Z,99808.19
2019-05-10T02:08:00.264Z,99811.58
2019-05-10T02:10:29.618Z,99811.89
2019-05-10T02:12:58.303Z,99811.31
2019-05-10T02:15:27.028Z,99812.83
2019-05-10T02:17:55.715Z,99809.45
2019-05-10T02:20:24.362Z,99814.18
2019-05-10T02:22:53.026Z,99812.83
2019-05-10T02:25:21.837Z,99820.94
2019-05-10T02:27:50.490Z,99817.03
2019-05-10T02:30:19.391Z,99817.37
2019-05-10T02:32:48.047Z,99825.98
2019-05-10T02:35:16.862Z,99821.59
2019-05-10T02:37:45.518Z,99826.79
2019-05-10T02:40:15.156Z,99828.48
2019-05-10T02:42:43.802Z,99831.20
2019-05-10T02:45:12.812Z,99824.56
2019-05-10T02:47:41.458Z,99828.11
2019-05-10T02:50:11.264Z,99837.28
2019-05-10T02:52:39.936Z,99842.88
2019-05-10T02:55:08.770Z,99846.42
2019-05-10T02:57:38.286Z,99843.23
2019-05-10T03:00:07.893Z,99846.61
2019-05-10T03:02:36.991Z,99852.66
2019-05-10T03:05:07.733Z,99854.20
2019-05-10T03:07:38.338Z,99852.95
2019-05-10T03:10:11.438Z,99850.55
2019-05-10T03:12:41.900Z,99857.04
2019-05-10T03:15:12.442Z,99856.56
2019-05-10T03:17:42.069Z,99859.98
2019-05-10T03:20:12.602Z,99857.66
2019-05-10T03:22:43.344Z,99866.30
2019-05-10T03:25:14.375Z,99872.92
2019-05-10T03:27:43.289Z,99875.12
2019-05-10T03:30:12.336Z,99883.42
2019-05-10T03:32:41.096Z,99880.71
2019-05-10T03:35:11.089Z,99889.38
2019-05-10T03:37:39.957Z,99887.70
2019-05-10T03:40:09.382Z,99884.33
2019-05-10T03:42:38.119Z,99885.02
2019-05-10T03:45:10.151Z,99892.59
2019-05-10T03:47:38.810Z,99890.53
2019-05-10T03:50:09.212Z,99894.10
2019-05-10T03:52:37.895Z,99897.19
2019-05-10T03:55:06.978Z,99889.75
2019-05-10T03:57:35.724Z,99892.83
2019-05-10T04:00:07.368Z,99902.34
2019-05-10T04:02:36.093Z,99902.35
2019-05-10T04:05:06.787Z,99899.33
2019-05-10T04:07:35.449Z,99900.70
2019-05-10T04:10:06.158Z,99905.47
2019-05-10T04:12:34.901Z,99903.41
2019-05-10T04:15:04.731Z,99901.52
2019-05-10T04:17:33.386Z,99897.61
2019-05-10T04:20:02.121Z,99901.68
2019-05-10T04:22:30.769Z,99906.43
2019-05-10T04:24:59.469Z,99906.13
2019-05-10T04:27:32.060Z,99910.90
2019-05-10T04:29:58.550Z,99912.63
2019-05-10T04:32:27.555Z,99918.58
2019-05-10T04:34:56.287Z,99925.67
2019-05-10T04:37:25.043Z,99926.20
2019-05-10T04:39:53.747Z,99929.59
2019-05-10T04:42:22.391Z,99934.50
2019-05-10T04:44:53.503Z,99933.16
2019-05-10T04:47:21.462Z,99938.58
2019-05-10T04:49:50.125Z,99942.86
2019-05-10T04:52:18.818Z,99940.16
2019-05-10T04:54:47.485Z,99943.39
2019-05-10T04:57:16.185Z,99943.77
2019-05-10T04:59:44.919Z,99944.94
2019-05-10T05:02:13.710Z,99951.80
2019-05-10T05:04:42.364Z,99952.95
2019-05-10T05:07:11.035Z,99952.28
2019-05-10T05:09:39.708Z,99951.80
2019-05-10T05:12:08.404Z,99950.45
2019-05-10T05:14:37.069Z,99957.07
2019-05-10T05:17:05.759Z,99960.27
2019-05-10T05:19:34.433Z,99962.14
2019-05-10T05:22:03.166Z,99961.83
2019-05-10T05:24:31.877Z,99965.38
2019-05-10T05:27:00.619Z,99967.05
2019-05-10T05:29:29.304Z,99964.86
2019-05-10T05:32:00.950Z,99966.58
2019-05-10T05:34:28.502Z,99971.81
2019-05-10T05:36:57.197Z,99973.52
2019-05-10T05:39:25.944Z,99973.20
2019-05-10T05:41:56.538Z,99975.09
2019-05-10T05:44:26.006Z,99973.38
2019-05-10T05:46:55.630Z,99981.20
2019-05-10T05:49:24.368Z,99983.72
2019-05-10T05:51:53.056Z,99980.69
2019-05-10T05:54:22.693Z,99978.49
2019-05-10T05:56:53.073Z,99981.05
2019-05-10T05:59:23.644Z,99984.30
2019-05-10T06:01:52.450Z,99981.26
2019-05-10T06:04:21.133Z,99982.62
2019-05-10T06:06:53.813Z,99989.41
2019-05-10T06:09:20.309Z,99994.36
2019-05-10T06:11:49.093Z,99994.00
2019-05-10T06:14:17.762Z,100001.47
2019-05-10T06:16:51.230Z,99999.78
2019-05-10T06:19:20.532Z,100006.24
2019-05-10T06:21:47.321Z,100003.69
2019-05-10T06:24:16.080Z,100008.80
2019-05-10T06:26:44.752Z,100005.39
2019-05-10T06:29:17.225Z,99939.68
2019-05-10T06:31:43.994Z,100021.70
2019-05-10T06:34:12.755Z,100024.91
2019-05-10T06:36:41.448Z,100019.47
2019-05-10T06:39:10.137Z,100020.16
2019-05-10T06:41:38.913Z,100027.28
2019-05-10T06:44:07.584Z,100030.36
2019-05-10T06:46:36.279Z,100035.80
2019-05-10T06:49:08.365Z,100033.41
2019-05-10T06:51:35.506Z,100024.25
2019-05-10T06:54:04.353Z,100038.00
2019-05-10T06:56:33.017Z,100033.39
2019-05-10T06:59:13.098Z,100041.91
2019-05-10T07:01:32.127Z,100036.98
2019-05-10T07:04:00.839Z,100032.22
2019-05-10T07:06:29.573Z,100039.17
2019-05-10T07:08:59.537Z,100041.73
2019-05-10T07:11:28.326Z,100042.91
2019-05-10T07:13:57.027Z,100045.80
2019-05-10T07:16:26.134Z,100041.88
2019-05-10T07:19:00.530Z,100042.23
2019-05-10T07:21:25.466Z,100048.16
2019-05-10T07:23:54.158Z,100050.89
2019-05-10T07:26:26.340Z,100050.37
2019-05-10T07:28:57.513Z,100053.80
2019-05-10T07:31:24.016Z,100052.76
2019-05-10T07:33:53.047Z,100053.11
2019-05-10T07:36:27.458Z,100055.67
2019-05-10T07:38:52.120Z,100058.19
2019-05-10T07:41:26.570Z,100056.50
2019-05-10T07:43:51.219Z,100064.16
2019-05-10T07:46:19.898Z,100075.41
2019-05-10T07:48:53.506Z,100076.40
2019-05-10T07:51:22.863Z,100082.50
2019-05-10T07:53:49.700Z,100083.03
2019-05-10T07:56:18.409Z,100093.89
2019-05-10T07:58:47.187Z,100090.17
2019-05-10T08:01:15.892Z,100090.83
2019-05-10T08:03:52.122Z,100096.27
2019-05-10T08:06:19.225Z,100091.87
2019-05-10T08:08:49.490Z,100103.74
2019-05-10T08:11:19.126Z,100105.62
2019-05-10T08:13:48.647Z,100113.28
2019-05-10T08:16:22.706Z,100113.28
2019-05-10T08:18:49.796Z,100114.48
2019-05-10T08:21:23.845Z,100123.14
2019-05-10T08:23:51.928Z,100123.13
2019-05-10T08:26:24.220Z,100132.34
2019-05-10T08:28:52.417Z,100130.95
2019-05-10T08:31:22.190Z,100139.43
2019-05-10T08:33:57.183Z,100133.25
2019-05-10T08:36:21.959Z,100148.98
2019-05-10T08:39:03.055Z,100150.47
2019-05-10T08:41:22.787Z,100149.73
2019-05-10T08:43:53.141Z,100147.27
2019-05-10T08:46:28.594Z,100152.23
2019-05-10T08:48:53.886Z,100161.38
2019-05-10T08:51:22.934Z,100158.05
2019-05-10T08:53:53.582Z,100163.67
2019-05-10T08:56:24.118Z,100168.58
2019-05-10T08:58:53.620Z,100168.02
2019-05-10T09:01:29.523Z,100177.07
2019-05-10T09:03:59.155Z,100183.02
2019-05-10T09:06:23.558Z,100178.78
2019-05-10T09:09:01.363Z,100186.28
2019-05-10T09:11:23.218Z,100186.48
2019-05-10T09:13:53.374Z,100190.76
2019-05-10T09:16:23.679Z,100192.46
2019-05-10T09:18:53.523Z,100197.23
2019-05-10T09:21:22.515Z,100193.34
2019-05-10T09:24:01.222Z,100195.38
2019-05-10T09:26:22.716Z,100189.46
2019-05-10T09:28:53.467Z,100195.75
2019-05-10T09:31:25.483Z,100198.45
2019-05-10T09:33:54.314Z,100212.42
2019-05-10T09:36:30.756Z,100210.05
2019-05-10T09:38:53.223Z,100207.28
2019-05-10T09:41:22.628Z,100206.91
2019-05-10T09:43:53.591Z,100212.95
2019-05-10T09:46:22.870Z,100210.03
2019-05-10T09:48:54.481Z,100218.20
2019-05-10T09:51:30.181Z,100219.72
2019-05-10T09:53:52.545Z,100220.94
2019-05-10T09:56:22.728Z,100232.71
2019-05-10T09:58:53.767Z,100230.90
2019-05-10T10:01:22.554Z,100243.35
2019-05-10T10:03:51.302Z,100240.47
2019-05-10T10:06:23.833Z,100250.73
2019-05-10T10:08:53.537Z,100261.84
2019-05-10T10:11:22.399Z,100262.39
2019-05-10T10:13:58.981Z,100262.75
2019-05-10T10:16:21.519Z,100266.85
2019-05-10T10:18:50.182Z,100272.80
2019-05-10T10:21:30.818Z,100274.34
2019-05-10T10:23:49.408Z,100278.94
2019-05-10T10:26:22.197Z,100286.39
2019-05-10T10:28:49.577Z,100284.03
2019-05-10T10:31:27.071Z,100289.80
2019-05-10T10:33:58.227Z,100286.76
2019-05-10T10:36:20.227Z,100294.59
2019-05-10T10:38:49.785Z,100296.62
2019-05-10T10:41:25.863Z,100302.58
2019-05-10T10:43:49.305Z,100304.80
2019-05-10T10:46:19.892Z,100304.59
2019-05-10T10:48:51.049Z,100307.16
2019-05-10T10:51:18.957Z,100311.92
2019-05-10T10:53:47.621Z,100307.51
2019-05-10T10:56:17.611Z,100312.09
2019-05-10T10:58:49.612Z,100314.47
2019-05-10T11:01:21.520Z,100321.64
2019-05-10T11:03:49.088Z,100321.13
2019-05-10T11:06:17.678Z,100326.06
2019-05-10T11:08:46.364Z,100334.75
2019-05-10T11:11:15.093Z,100336.61
2019-05-10T11:13:45.800Z,100338.14
2019-05-10T11:16:15.525Z,100338.13
2019-05-10T11:18:44.611Z,100343.77
2019-05-10T11:21:13.323Z,100348.02
2019-05-10T11:23:42.235Z,100359.23
2019-05-10T11:26:11.037Z,100355.31
2019-05-10T11:28:43.919Z,100363.00
2019-05-10T11:31:11.411Z,100364.01
2019-05-10T11:33:41.450Z,100365.20
2019-05-10T11:36:11.415Z,100367.58
2019-05-10T11:38:42.015Z,100371.66
2019-05-10T11:41:13.590Z,100376.58
2019-05-10T11:43:42.032Z,100375.22
2019-05-10T11:46:11.727Z,100377.78
2019-05-10T11:48:42.161Z,100379.47
2019-05-10T11:51:17.180Z,100382.19
2019-05-10T11:53:41.726Z,100372.50
2019-05-10T12:01:17.544Z,100387.00
2019-05-10T12:03:42.543Z,100392.63
2019-05-10T12:06:12.108Z,100395.34
2019-05-10T12:08:41.836Z,100407.08
2019-05-10T12:13:41.356Z,100412.89
2019-05-10T12:16:16.103Z,100415.08
2019-05-10T12:21:11.407Z,100413.87
2019-05-10T12:23:49.995Z,100416.91
2019-05-10T12:26:16.068Z,100402.32
2019-05-10T12:26:18.268Z,100423.42
2019-05-10T12:26:18.978Z,100383.09
2019-05-10T12:26:27.159Z,100380.53
2019-05-10T12:28:41.037Z,100425.83
2019-05-10T12:31:15.179Z,100431.61
2019-05-10T12:33:44.537Z,100436.04
2019-05-10T12:36:22.388Z,100441.67
2019-05-10T12:38:40.982Z,100449.50
2019-05-10T12:41:09.652Z,100464.97
2019-05-10T12:43:43.150Z,100458.67
2019-05-10T12:46:10.503Z,100459.51
2019-05-10T12:48:39.155Z,100466.96
2019-05-10T12:51:11.813Z,100473.44
2019-05-10T12:53:44.416Z,100477.31
2019-05-10T12:56:08.596Z,100475.63
2019-05-10T12:58:37.393Z,100479.89
2019-05-10T13:01:06.066Z,100475.64
2019-05-10T13:03:34.743Z,100478.05
2019-05-10T13:06:03.459Z,100489.11
2019-05-10T13:08:32.184Z,100497.81
2019-05-10T13:11:00.832Z,100499.22
2019-05-10T13:13:30.151Z,100497.17
2019-05-10T13:16:03.648Z,100506.71
2019-05-10T13:21:00.977Z,100507.39
2019-05-10T13:23:29.680Z,100503.66
2019-05-10T13:26:23.793Z,100506.90
2019-05-10T13:28:52.444Z,100506.38
2019-05-10T13:31:21.326Z,100515.75
2019-05-10T13:33:50.015Z,100504.39
2019-05-10T13:36:18.712Z,100515.27
2019-05-10T13:38:49.210Z,100526.17
2019-05-10T13:41:23.724Z,100527.50
2019-05-10T13:43:48.407Z,100527.51
2019-05-10T13:46:17.156Z,100530.55
2019-05-10T13:48:45.866Z,100534.48
2019-05-10T13:51:14.594Z,100548.27
2019-05-10T13:53:43.241Z,100550.62
2019-05-10T13:56:11.951Z,100553.70
2019-05-10T13:58:40.648Z,100553.17
2019-05-10T14:01:13.185Z,100555.36
2019-05-10T14:03:44.293Z,100560.80
2019-05-10T14:06:10.420Z,100558.77
2019-05-10T14:08:42.785Z,100558.45
2019-05-10T14:11:09.512Z,100562.55
2019-05-10T14:13:41.667Z,100565.27
2019-05-10T14:16:18.611Z,100567.80
2019-05-10T14:18:39.341Z,100572.09
2019-05-10T14:21:08.121Z,100570.20
2019-05-10T14:23:37.406Z,100573.26
2019-05-10T14:26:09.145Z,100567.27
2019-05-10T14:28:36.595Z,100573.23
2019-05-10T14:31:05.401Z,100572.25
2019-05-10T14:33:34.127Z,100570.74
2019-05-10T14:36:03.400Z,100585.42
2019-05-10T14:38:32.254Z,100575.20
2019-05-10T14:41:04.042Z,100576.30
2019-05-10T14:43:31.355Z,100578.50
2019-05-10T14:46:00.092Z,100579.88
2019-05-10T14:48:30.731Z,100581.59
2019-05-10T14:51:03.319Z,100581.23
2019-05-10T14:53:29.733Z,100587.20
2019-05-10T14:55:58.529Z,100586.00
2019-05-10T14:58:27.287Z,100592.14
2019-05-10T15:00:55.961Z,100598.13
2019-05-10T15:03:24.721Z,100599.99
2019-05-10T15:05:55.649Z,100610.06
2019-05-10T15:08:24.016Z,100609.70
